Time;durP1;ratioP1;P1;durP2;ratioP2;P2;SDS_P1;SDS_P2;PMS_P1;PMS_P2;Temp;Humidity;BMP_temperature;BMP_pressure;BME280_temperature;BME280_humidity;BME280_pressure;Samples;Min_cycle;Max_cycle;Signal;HPM_P1;HPM_P2
2023/07/12 00:00:49;;;;;;;10.20;1.65;;;25.50;73.00;;;;;;4974851;28;20031;-58
2023/07/12 00:03:16;;;;;;;4.93;1.45;;;25.30;74.80;;;;;;4977703;28;20034;-58
2023/07/12 00:05:43;;;;;;;5.18;1.73;;;25.00;76.80;;;;;;4976627;28;20039;-57
2023/07/12 00:08:26;;;;;;;4.05;1.33;;;24.80;78.40;;;;;;4975559;28;20040;-57
2023/07/12 00:10:54;;;;;;;14.10;1.80;;;24.60;80.50;;;;;;4980110;28;20038;-58
2023/07/12 00:13:20;;;;;;;6.43;1.60;;;24.40;82.50;;;;;;4978129;28;20026;-57
2023/07/12 00:15:48;;;;;;;3.17;1.60;;;24.20;85.90;;;;;;4977459;28;20910;-58
2023/07/12 00:18:20;;;;;;;4.63;1.50;;;24.00;90.50;;;;;;4975574;28;20045;-58
2023/07/12 00:20:47;;;;;;;4.93;1.52;;;23.80;93.00;;;;;;4979065;28;20575;-59
2023/07/12 00:23:15;;;;;;;3.00;1.63;;;23.60;95.60;;;;;;4974228;28;20022;-57
2023/07/12 00:25:42;;;;;;;3.67;1.60;;;23.50;97.40;;;;;;4976429;28;20490;-56
2023/07/12 00:28:21;;;;;;;4.93;1.73;;;23.40;98.80;;;;;;4976856;28;20031;-58
2023/07/12 00:30:47;;;;;;;5.75;1.85;;;23.30;99.90;;;;;;4975462;28;20061;-58
2023/07/12 00:33:13;;;;;;;4.70;1.90;;;23.10;99.90;;;;;;4977438;28;20035;-57
2023/07/12 00:35:41;;;;;;;2.55;1.60;;;23.00;99.90;;;;;;4971907;28;20034;-56
2023/07/12 00:38:15;;;;;;;2.15;1.88;;;22.90;99.90;;;;;;4976196;28;20080;-58
2023/07/12 00:40:51;;;;;;;5.90;2.17;;;22.80;99.90;;;;;;4978829;28;20093;-57
2023/07/12 00:43:35;;;;;;;2.70;1.63;;;22.70;99.90;;;;;;4975530;28;20445;-55
2023/07/12 00:46:08;;;;;;;6.35;1.98;;;22.70;99.90;;;;;;4976497;28;20027;-58
2023/07/12 00:48:33;;;;;;;3.60;2.10;;;22.60;99.90;;;;;;4976269;28;20035;-58
2023/07/12 00:51:07;;;;;;;3.58;1.92;;;22.50;99.90;;;;;;4976641;28;20126;-56
2023/07/12 00:53:33;;;;;;;2.60;2.15;;;22.50;99.90;;;;;;4975519;28;20104;-58
2023/07/12 00:56:01;;;;;;;3.25;1.90;;;22.40;99.90;;;;;;4974956;28;20034;-57
2023/07/12 00:58:32;;;;;;;3.47;2.22;;;22.40;99.90;;;;;;4976026;28;20056;-58
2023/07/12 01:01:00;;;;;;;2.35;2.08;;;22.30;99.90;;;;;;4975639;28;20558;-57
2023/07/12 01:03:29;;;;;;;2.92;2.20;;;22.30;99.90;;;;;;4975322;28;20035;-57
2023/07/12 01:05:55;;;;;;;2.97;2.10;;;22.10;99.90;;;;;;4978055;28;20023;-57
2023/07/12 01:08:21;;;;;;;2.90;2.05;;;22.00;99.90;;;;;;4981919;28;20027;-56
2023/07/12 01:10:47;;;;;;;2.72;1.98;;;21.90;99.90;;;;;;4979820;28;20030;-57
2023/07/12 01:13:13;;;;;;;3.13;2.20;;;21.90;99.90;;;;;;4978628;28;20109;-58
2023/07/12 01:15:39;;;;;;;2.95;2.22;;;21.80;99.90;;;;;;4978120;28;20113;-55
2023/07/12 01:18:07;;;;;;;3.30;2.25;;;21.80;99.90;;;;;;4983011;28;20049;-57
2023/07/12 01:20:41;;;;;;;2.25;2.03;;;21.90;99.90;;;;;;4979025;28;20076;-58
2023/07/12 01:23:07;;;;;;;3.65;2.45;;;21.80;99.90;;;;;;4979264;28;20124;-57
2023/07/12 01:25:46;;;;;;;3.30;2.33;;;21.80;99.90;;;;;;4978107;28;20130;-57
2023/07/12 01:28:12;;;;;;;3.50;2.40;;;21.70;99.90;;;;;;4979230;28;20035;-57
2023/07/12 01:30:39;;;;;;;2.88;2.33;;;21.60;99.90;;;;;;4978432;28;20134;-58
2023/07/12 01:33:06;;;;;;;2.42;2.20;;;21.50;99.90;;;;;;4982519;28;20032;-57
2023/07/12 01:35:32;;;;;;;2.97;2.20;;;21.40;99.90;;;;;;4978493;28;20079;-57
2023/07/12 01:37:58;;;;;;;3.45;2.50;;;21.40;99.90;;;;;;4980283;28;20414;-58
2023/07/12 01:40:24;;;;;;;2.28;2.03;;;21.40;99.90;;;;;;4976672;28;20578;-57
2023/07/12 01:42:49;;;;;;;2.85;2.25;;;21.50;99.90;;;;;;4979414;28;20122;-58
2023/07/12 01:45:15;;;;;;;4.30;2.45;;;21.60;99.90;;;;;;4979718;28;20042;-57
2023/07/12 01:47:41;;;;;;;3.13;1.83;;;21.70;99.90;;;;;;4980069;28;20449;-57
2023/07/12 01:50:07;;;;;;;3.08;2.05;;;21.80;99.90;;;;;;4981040;28;20081;-58
2023/07/12 01:52:32;;;;;;;3.65;1.92;;;21.90;99.90;;;;;;4979899;28;20030;-58
2023/07/12 01:54:58;;;;;;;2.28;2.00;;;21.90;99.90;;;;;;4980550;28;20669;-57
2023/07/12 01:57:23;;;;;;;1.90;1.77;;;21.90;99.90;;;;;;4977763;28;20040;-57
2023/07/12 01:59:49;;;;;;;2.88;2.25;;;21.80;99.90;;;;;;4978684;28;20110;-57
2023/07/12 02:02:15;;;;;;;4.32;1.95;;;21.70;99.90;;;;;;4980574;28;20026;-56
2023/07/12 02:04:41;;;;;;;2.60;2.00;;;21.60;99.90;;;;;;4977937;28;20034;-58
2023/07/12 02:07:07;;;;;;;2.85;2.05;;;21.50;99.90;;;;;;4979187;28;20049;-57
2023/07/12 02:09:35;;;;;;;2.30;2.00;;;21.40;99.90;;;;;;4979639;28;20578;-57
2023/07/12 02:12:01;;;;;;;3.17;1.90;;;21.30;99.90;;;;;;4977628;28;20038;-57
2023/07/12 02:14:27;;;;;;;4.32;1.95;;;21.30;99.90;;;;;;4979509;28;20037;-57
2023/07/12 02:16:53;;;;;;;3.92;1.90;;;21.20;99.90;;;;;;4979103;28;20019;-57
2023/07/12 02:19:20;;;;;;;2.13;1.70;;;21.20;99.90;;;;;;4976838;28;20042;-59
2023/07/12 02:21:46;;;;;;;3.65;1.83;;;21.20;99.90;;;;;;4978014;28;20056;-58
2023/07/12 02:24:11;;;;;;;2.60;2.20;;;21.20;99.90;;;;;;4982442;28;20443;-57
2023/07/12 02:26:39;;;;;;;2.53;2.10;;;21.20;99.90;;;;;;4978638;28;20471;-59
2023/07/12 02:29:05;;;;;;;2.53;2.00;;;21.10;99.90;;;;;;4981245;28;20027;-58
2023/07/12 02:31:31;;;;;;;3.67;2.53;;;21.00;99.90;;;;;;4974771;28;20038;-58
2023/07/12 02:33:57;;;;;;;2.55;1.90;;;20.90;99.90;;;;;;4976744;28;20034;-57
2023/07/12 02:36:23;;;;;;;2.58;2.22;;;20.90;99.90;;;;;;4977047;28;20137;-58
2023/07/12 02:38:49;;;;;;;2.45;2.08;;;21.00;99.90;;;;;;4976190;28;20041;-57
2023/07/12 02:41:18;;;;;;;2.38;2.05;;;21.00;99.90;;;;;;4979540;28;20514;-56
2023/07/12 02:43:46;;;;;;;2.47;2.20;;;21.00;99.90;;;;;;4978006;28;20039;-57
2023/07/12 02:46:11;;;;;;;2.33;1.98;;;20.90;99.90;;;;;;4979077;28;20561;-58
2023/07/12 02:48:37;;;;;;;2.50;1.65;;;20.70;99.90;;;;;;4978065;28;20031;-56
2023/07/12 02:51:03;;;;;;;2.88;1.80;;;20.60;99.90;;;;;;4977070;28;20077;-57
2023/07/12 02:53:29;;;;;;;2.78;1.95;;;20.50;99.90;;;;;;4977441;28;20034;-56
2023/07/12 02:55:55;;;;;;;2.25;1.90;;;20.40;99.90;;;;;;4976840;28;20065;-57
2023/07/12 02:58:21;;;;;;;2.22;1.83;;;20.40;99.90;;;;;;4979597;28;20037;-57
2023/07/12 03:00:47;;;;;;;4.47;2.15;;;20.30;99.90;;;;;;4978591;28;20562;-58
2023/07/12 03:03:13;;;;;;;6.03;2.30;;;20.20;99.90;;;;;;4978517;28;20026;-57
2023/07/12 03:05:40;;;;;;;2.55;1.92;;;20.10;99.90;;;;;;4977878;28;20387;-57
2023/07/12 03:08:07;;;;;;;3.10;2.08;;;20.00;99.90;;;;;;4978770;28;20098;-57
2023/07/12 03:10:37;;;;;;;2.72;2.30;;;20.10;99.90;;;;;;4976852;28;20045;-58
2023/07/12 03:13:03;;;;;;;2.50;1.90;;;20.00;99.90;;;;;;4979167;28;20117;-57
2023/07/12 03:15:28;;;;;;;2.90;2.00;;;20.00;99.90;;;;;;4978200;28;20114;-58
2023/07/12 03:17:54;;;;;;;2.45;1.98;;;20.00;99.90;;;;;;4980437;28;20030;-56
2023/07/12 03:20:20;;;;;;;3.92;2.20;;;20.00;99.90;;;;;;4978416;28;20122;-57
2023/07/12 03:22:45;;;;;;;3.45;2.25;;;20.00;99.90;;;;;;4981041;28;20111;-57
2023/07/12 03:25:11;;;;;;;2.35;2.15;;;20.00;99.90;;;;;;4972590;28;20074;-56
2023/07/12 03:27:37;;;;;;;2.45;2.25;;;20.10;99.90;;;;;;4978273;28;20602;-56
2023/07/12 03:30:02;;;;;;;2.13;1.95;;;20.10;99.90;;;;;;4978043;28;20143;-57
2023/07/12 03:32:28;;;;;;;4.15;2.40;;;20.20;99.90;;;;;;4977900;28;20085;-58
2023/07/12 03:34:54;;;;;;;2.72;1.80;;;20.20;99.90;;;;;;4975846;28;20372;-57
2023/07/12 03:37:19;;;;;;;2.15;1.95;;;20.30;99.90;;;;;;4977958;28;20030;-57
2023/07/12 03:39:45;;;;;;;2.58;2.00;;;20.40;99.90;;;;;;4980227;28;20049;-57
2023/07/12 03:42:11;;;;;;;3.05;2.17;;;20.40;99.90;;;;;;4976574;28;20069;-57
2023/07/12 03:44:36;;;;;;;2.20;2.00;;;20.40;99.90;;;;;;4974750;28;20031;-57
2023/07/12 03:47:02;;;;;;;3.05;2.10;;;20.40;99.90;;;;;;4974961;28;20042;-57
2023/07/12 03:49:29;;;;;;;2.13;1.92;;;20.40;99.90;;;;;;4975550;28;20085;-58
2023/07/12 03:51:54;;;;;;;2.28;2.00;;;20.40;99.90;;;;;;4974992;28;20081;-58
2023/07/12 03:54:21;;;;;;;3.08;1.90;;;20.50;99.90;;;;;;4973858;28;20035;-58
2023/07/12 03:56:47;;;;;;;2.03;1.50;;;20.50;99.90;;;;;;4974374;28;20023;-57
2023/07/12 03:59:13;;;;;;;2.05;1.67;;;20.50;99.90;;;;;;4977589;28;20438;-55
2023/07/12 04:01:38;;;;;;;2.65;1.75;;;20.50;99.90;;;;;;4980304;28;20038;-56
2023/07/12 04:04:05;;;;;;;1.95;1.60;;;20.40;99.90;;;;;;4981517;28;20031;-56
2023/07/12 04:06:31;;;;;;;4.03;1.95;;;20.50;99.90;;;;;;4976566;28;20022;-57
2023/07/12 04:08:57;;;;;;;2.35;1.70;;;20.50;99.90;;;;;;4978169;28;20035;-57
2023/07/12 04:11:31;;;;;;;3.38;1.38;;;20.60;99.90;;;;;;4979353;28;20566;-57
2023/07/12 04:13:59;;;;;;;3.13;1.67;;;20.60;99.90;;;;;;4978079;28;20032;-56
2023/07/12 04:16:25;;;;;;;2.72;1.80;;;20.60;99.90;;;;;;4975864;28;20130;-57
2023/07/12 04:18:51;;;;;;;2.10;1.80;;;20.60;99.90;;;;;;4980005;28;20089;-57
2023/07/12 04:21:17;;;;;;;2.15;1.95;;;20.70;99.90;;;;;;4980649;28;20038;-57
2023/07/12 04:23:43;;;;;;;2.25;1.60;;;20.80;99.90;;;;;;4975504;28;20035;-58
2023/07/12 04:26:09;;;;;;;2.80;2.05;;;20.90;99.90;;;;;;4975379;28;20128;-57
2023/07/12 04:28:43;;;;;;;2.55;1.50;;;21.00;99.90;;;;;;4975421;28;20034;-58
2023/07/12 04:31:12;;;;;;;2.70;1.55;;;21.10;99.90;;;;;;4975075;28;20035;-56
2023/07/12 04:33:38;;;;;;;2.35;1.75;;;21.20;99.90;;;;;;4971353;28;20035;-58
2023/07/12 04:36:12;;;;;;;2.97;1.63;;;21.30;99.90;;;;;;4974041;28;20085;-58
2023/07/12 04:38:37;;;;;;;2.03;1.50;;;21.40;99.90;;;;;;4978395;28;20038;-58
2023/07/12 04:41:04;;;;;;;2.80;1.42;;;21.50;99.90;;;;;;4976218;28;20030;-58
2023/07/12 04:43:30;;;;;;;3.03;1.85;;;21.50;99.90;;;;;;4980314;28;20026;-57
2023/07/12 04:45:57;;;;;;;1.70;1.40;;;21.40;99.90;;;;;;4983050;28;20029;-57
2023/07/12 04:48:23;;;;;;;3.10;1.38;;;21.30;99.90;;;;;;4979782;28;20042;-57
2023/07/12 04:50:51;;;;;;;2.60;1.40;;;21.30;99.90;;;;;;4984662;28;20031;-57
2023/07/12 04:53:17;;;;;;;1.95;1.55;;;21.20;99.90;;;;;;4978616;28;20041;-58
2023/07/12 04:55:43;;;;;;;2.88;1.40;;;21.20;99.90;;;;;;4982396;28;20026;-58
2023/07/12 04:58:08;;;;;;;1.50;1.40;;;21.20;99.90;;;;;;4979464;28;20026;-57
2023/07/12 05:00:34;;;;;;;2.78;1.50;;;21.20;99.90;;;;;;4979271;28;20035;-57
2023/07/12 05:03:00;;;;;;;2.75;1.50;;;21.30;99.90;;;;;;4981668;28;20509;-58
2023/07/12 05:05:25;;;;;;;1.67;1.30;;;21.30;99.90;;;;;;4979854;28;20034;-56
2023/07/12 05:07:51;;;;;;;2.22;1.65;;;21.30;99.90;;;;;;4982620;28;20920;-58
2023/07/12 05:10:17;;;;;;;4.38;1.27;;;21.30;99.90;;;;;;4983452;28;20062;-56
2023/07/12 05:12:43;;;;;;;2.05;1.15;;;21.30;99.90;;;;;;4984708;28;20029;-57
2023/07/12 05:15:10;;;;;;;1.90;1.00;;;21.20;99.90;;;;;;4981746;28;20037;-57
2023/07/12 05:17:37;;;;;;;3.58;1.40;;;21.30;99.90;;;;;;4980136;28;20035;-57
2023/07/12 05:20:07;;;;;;;1.80;1.15;;;21.30;99.90;;;;;;4982924;28;20026;-57
2023/07/12 05:22:33;;;;;;;2.95;1.20;;;21.30;99.90;;;;;;4984480;28;20122;-57
2023/07/12 05:24:59;;;;;;;1.38;1.20;;;21.50;99.90;;;;;;4986010;28;20026;-58
2023/07/12 05:27:25;;;;;;;1.20;1.10;;;21.60;99.90;;;;;;4981620;28;20037;-56
2023/07/12 05:29:51;;;;;;;1.40;1.10;;;21.70;99.90;;;;;;4982141;28;20034;-56
2023/07/12 05:32:17;;;;;;;1.20;1.10;;;21.80;99.90;;;;;;4979501;28;20022;-57
2023/07/12 05:34:42;;;;;;;3.35;1.25;;;21.80;99.90;;;;;;4983951;28;20439;-58
2023/07/12 05:37:10;;;;;;;2.17;1.23;;;21.90;99.90;;;;;;4981387;28;20105;-57
2023/07/12 05:39:35;;;;;;;1.42;1.20;;;21.90;99.90;;;;;;4981823;28;20499;-58
2023/07/12 05:42:01;;;;;;;1.60;1.10;;;21.90;99.90;;;;;;4983550;28;20057;-57
2023/07/12 05:44:27;;;;;;;2.55;1.42;;;21.90;99.90;;;;;;4982857;28;20084;-56
2023/07/12 05:46:53;;;;;;;1.35;1.17;;;21.90;99.90;;;;;;4983128;28;20022;-58
2023/07/12 05:49:18;;;;;;;1.88;1.10;;;21.90;99.90;;;;;;4982352;28;20414;-58
2023/07/12 05:51:44;;;;;;;1.95;1.00;;;21.90;99.90;;;;;;4983950;28;20392;-57
2023/07/12 05:54:10;;;;;;;1.50;1.25;;;22.00;99.90;;;;;;4983169;28;20034;-57
2023/07/12 05:56:35;;;;;;;1.58;1.20;;;22.10;99.90;;;;;;4984290;28;20034;-56
2023/07/12 05:59:01;;;;;;;2.90;1.27;;;22.30;99.90;;;;;;5002620;28;20519;-56
2023/07/12 06:01:27;;;;;;;1.17;0.95;;;22.40;99.90;;;;;;4984839;28;20030;-56
2023/07/12 06:03:53;;;;;;;1.10;1.00;;;22.50;99.90;;;;;;4980866;28;20404;-56
2023/07/12 06:06:19;;;;;;;2.63;1.27;;;22.70;99.90;;;;;;4980522;28;20037;-56
2023/07/12 06:08:44;;;;;;;2.55;1.45;;;22.90;99.90;;;;;;4981832;28;20495;-58
2023/07/12 06:11:10;;;;;;;2.15;1.10;;;22.90;99.90;;;;;;4984008;28;20027;-58
2023/07/12 06:13:36;;;;;;;1.45;0.98;;;23.00;99.90;;;;;;4979434;28;20037;-57
2023/07/12 06:16:02;;;;;;;1.80;1.00;;;23.10;99.90;;;;;;4983546;28;20057;-57
2023/07/12 06:18:30;;;;;;;1.35;1.10;;;23.20;99.90;;;;;;4981868;28;20050;-57
2023/07/12 06:20:57;;;;;;;1.60;1.02;;;23.40;99.90;;;;;;4982100;28;20031;-55
2023/07/12 06:23:23;;;;;;;2.15;1.00;;;23.60;99.90;;;;;;4980450;28;20033;-57
2023/07/12 06:25:50;;;;;;;1.92;1.15;;;23.90;99.90;;;;;;4981627;28;20019;-57
2023/07/12 06:28:15;;;;;;;1.60;1.08;;;24.10;99.90;;;;;;4980322;28;20158;-56
2023/07/12 06:30:41;;;;;;;4.65;1.48;;;24.10;99.90;;;;;;4977575;28;20055;-57
2023/07/12 06:33:07;;;;;;;2.33;1.30;;;24.00;99.90;;;;;;4978169;28;20054;-58
2023/07/12 06:35:32;;;;;;;1.40;1.30;;;24.00;99.90;;;;;;4978679;28;20061;-58
2023/07/12 06:37:58;;;;;;;2.30;1.40;;;24.10;99.90;;;;;;4979173;28;20559;-57
2023/07/12 06:40:24;;;;;;;2.28;1.40;;;24.20;99.90;;;;;;4977890;28;20510;-58
2023/07/12 06:42:49;;;;;;;3.60;1.30;;;24.30;99.90;;;;;;4981430;28;20026;-57
2023/07/12 06:45:15;;;;;;;4.88;1.30;;;24.50;99.90;;;;;;4980527;28;20081;-57
2023/07/12 06:47:40;;;;;;;1.88;1.25;;;24.80;99.90;;;;;;4975537;28;20537;-58
2023/07/12 06:50:06;;;;;;;2.50;1.30;;;25.10;99.90;;;;;;4975877;28;20056;-57
2023/07/12 06:52:32;;;;;;;1.60;1.30;;;25.30;99.90;;;;;;4976551;28;20031;-57
2023/07/12 06:54:57;;;;;;;2.45;1.30;;;25.30;99.90;;;;;;4979042;28;20465;-58
2023/07/12 06:57:23;;;;;;;1.98;1.40;;;25.40;99.90;;;;;;4974748;28;20069;-56
2023/07/12 06:59:49;;;;;;;3.67;1.70;;;25.30;99.90;;;;;;4975655;28;20035;-57
2023/07/12 07:02:15;;;;;;;1.95;1.55;;;25.40;99.90;;;;;;4977470;28;20049;-58
2023/07/12 07:04:40;;;;;;;6.15;1.50;;;25.40;99.90;;;;;;4975866;28;20057;-58
2023/07/12 07:07:06;;;;;;;3.60;1.50;;;25.40;99.90;;;;;;4977471;28;20531;-58
2023/07/12 07:09:38;;;;;;;5.20;2.10;;;25.50;99.90;;;;;;4977767;28;20070;-57
2023/07/12 07:12:07;;;;;;;2.75;1.52;;;25.40;99.90;;;;;;4981594;28;20057;-58
2023/07/12 07:14:33;;;;;;;3.45;1.80;;;25.30;99.90;;;;;;4980906;28;20117;-56
2023/07/12 07:16:59;;;;;;;5.32;1.55;;;25.20;99.90;;;;;;4980466;28;20101;-57
2023/07/12 07:19:24;;;;;;;2.00;1.77;;;24.90;99.90;;;;;;4979273;28;20039;-58
2023/07/12 07:21:50;;;;;;;4.55;1.83;;;24.70;99.90;;;;;;4980860;28;20038;-58
2023/07/12 07:24:17;;;;;;;3.97;1.80;;;24.50;99.90;;;;;;4981220;28;20101;-57
2023/07/12 07:26:44;;;;;;;3.20;1.83;;;24.40;99.90;;;;;;4974875;28;20034;-57
2023/07/12 07:29:10;;;;;;;2.97;1.80;;;24.40;99.90;;;;;;4979323;28;20018;-57
2023/07/12 07:31:35;;;;;;;6.18;1.77;;;24.50;99.90;;;;;;4980970;28;20033;-56
2023/07/12 07:34:01;;;;;;;4.95;2.00;;;24.60;99.90;;;;;;4978011;28;20042;-57
2023/07/12 07:36:27;;;;;;;4.00;2.10;;;24.70;99.90;;;;;;4979802;28;20084;-58
2023/07/12 07:38:52;;;;;;;3.67;1.90;;;24.70;99.90;;;;;;4977168;28;20109;-58
2023/07/12 07:41:19;;;;;;;3.20;2.85;;;24.80;99.90;;;;;;4977315;28;20387;-59
2023/07/12 07:43:45;;;;;;;5.00;2.38;;;24.70;99.90;;;;;;4975358;28;20057;-59
2023/07/12 07:46:15;;;;;;;3.22;2.42;;;24.50;99.90;;;;;;4974882;28;20023;-58
2023/07/12 07:48:40;;;;;;;3.75;2.20;;;24.30;99.90;;;;;;4975101;28;20109;-58
2023/07/12 07:51:09;;;;;;;7.38;3.10;;;24.10;99.90;;;;;;4979659;28;20114;-57
2023/07/12 07:53:35;;;;;;;6.45;2.67;;;24.00;99.90;;;;;;4975601;28;20015;-58
2023/07/12 07:56:01;;;;;;;7.93;2.83;;;23.90;99.90;;;;;;4975337;28;20026;-60
2023/07/12 07:58:26;;;;;;;4.55;2.38;;;23.80;99.90;;;;;;4977097;28;20117;-58
2023/07/12 08:00:52;;;;;;;4.78;2.55;;;23.70;99.90;;;;;;4974125;28;20414;-58
2023/07/12 08:03:18;;;;;;;3.75;2.88;;;23.70;99.90;;;;;;4975292;28;20497;-58
2023/07/12 08:05:45;;;;;;;4.45;2.70;;;23.80;99.90;;;;;;4978015;28;20034;-58
2023/07/12 08:08:10;;;;;;;6.53;3.08;;;23.90;99.90;;;;;;4977360;28;20039;-57
2023/07/12 08:10:36;;;;;;;4.60;2.55;;;24.30;99.90;;;;;;4979009;28;20432;-57
2023/07/12 08:13:03;;;;;;;4.53;3.13;;;24.70;99.90;;;;;;4977294;28;20037;-58
2023/07/12 08:15:28;;;;;;;3.03;2.78;;;25.00;99.90;;;;;;4977636;28;20039;-58
2023/07/12 08:17:54;;;;;;;5.05;2.60;;;25.20;99.90;;;;;;4976482;28;20041;-58
2023/07/12 08:20:22;;;;;;;5.40;3.20;;;25.30;99.90;;;;;;4976716;28;20109;-56
2023/07/12 08:22:49;;;;;;;4.18;2.97;;;25.30;99.90;;;;;;4977492;28;20019;-58
2023/07/12 08:25:15;;;;;;;6.88;3.53;;;25.20;99.90;;;;;;4979249;28;20609;-59
2023/07/12 08:27:41;;;;;;;4.10;3.00;;;25.00;99.90;;;;;;4977301;28;20050;-58
2023/07/12 08:30:08;;;;;;;8.13;4.03;;;24.80;99.90;;;;;;4973369;28;20019;-59
2023/07/12 08:32:34;;;;;;;4.40;3.30;;;24.60;99.90;;;;;;4979014;28;20088;-58
2023/07/12 08:35:01;;;;;;;6.38;3.67;;;24.60;99.90;;;;;;4978582;28;20092;-58
2023/07/12 08:37:27;;;;;;;6.40;3.63;;;24.60;99.90;;;;;;4978853;28;20066;-58
2023/07/12 08:39:54;;;;;;;5.32;4.03;;;24.50;99.90;;;;;;4977102;28;20150;-58
2023/07/12 08:42:25;;;;;;;6.93;3.80;;;24.30;99.90;;;;;;4976705;28;20038;-58
2023/07/12 08:44:51;;;;;;;;;;;24.20;99.90;;;;;;4975743;28;20052;-58
2023/07/12 08:47:27;;;;;;;4.38;3.97;;;24.30;99.90;;;;;;4975381;28;19908;-58
2023/07/12 08:49:53;;;;;;;4.57;3.75;;;24.40;99.90;;;;;;4980530;28;20018;-57
2023/07/12 08:52:22;;;;;;;5.53;4.47;;;24.50;99.90;;;;;;4976237;28;20947;-58
2023/07/12 08:54:49;;;;;;;4.00;3.63;;;24.60;99.90;;;;;;4973000;28;20030;-57
2023/07/12 08:57:23;;;;;;;5.63;3.70;;;24.80;99.90;;;;;;4975833;28;20045;-56
2023/07/12 09:00:28;;;;;;;6.43;3.78;;;24.90;99.90;;;;;;4977188;28;20073;-57
2023/07/12 09:02:54;;;;;;;5.93;4.10;;;25.10;99.90;;;;;;4975102;28;20042;-58
2023/07/12 09:05:22;;;;;;;6.82;3.45;;;25.30;99.90;;;;;;4975698;28;20437;-58
2023/07/12 09:07:58;;;;;;;5.13;4.07;;;25.40;99.90;;;;;;4976770;28;20082;-57
2023/07/12 09:10:39;;;;;;;5.35;3.70;;;25.60;99.90;;;;;;4980813;28;20037;-57
2023/07/12 09:13:05;;;;;;;5.90;3.85;;;25.70;99.90;;;;;;4980538;28;20123;-58
2023/07/12 09:15:37;;;;;;;7.57;3.83;;;25.90;99.90;;;;;;4978898;28;20118;-58
2023/07/12 09:18:08;;;;;;;3.25;2.95;;;26.00;99.90;;;;;;4980429;28;20038;-58
2023/07/12 09:20:38;;;;;;;5.47;3.55;;;26.00;99.90;;;;;;4979148;28;20023;-59
2023/07/12 09:23:08;;;;;;;4.72;3.47;;;26.20;99.90;;;;;;4980428;28;20062;-57
2023/07/12 09:25:37;;;;;;;5.53;3.08;;;26.40;99.90;;;;;;4981139;28;20026;-57
2023/07/12 09:28:04;;;;;;;4.28;3.50;;;26.80;99.90;;;;;;4981012;28;20113;-59
2023/07/12 09:30:30;;;;;;;3.70;2.97;;;27.00;99.90;;;;;;4979424;28;20562;-58
2023/07/12 09:32:57;;;;;;;3.50;3.20;;;27.10;99.90;;;;;;4981469;28;20113;-56
2023/07/12 09:35:41;;;;;;;4.97;3.45;;;27.20;99.90;;;;;;4980375;28;20538;-59
2023/07/12 09:38:15;;;;;;;9.27;3.30;;;27.10;99.90;;;;;;4980450;28;20030;-55
2023/07/12 09:40:44;;;;;;;5.65;3.45;;;27.00;99.90;;;;;;4979585;28;20046;-58
2023/07/12 09:43:22;;;;;;;7.68;3.30;;;26.90;99.90;;;;;;4978474;28;20038;-57
2023/07/12 09:46:11;;;;;;;7.10;3.35;;;27.10;99.90;;;;;;4980005;28;20503;-57
2023/07/12 09:48:47;;;;;;;8.57;3.28;;;27.40;99.90;;;;;;4975462;28;20035;-58
2023/07/12 09:51:33;;;;;;;6.47;3.53;;;27.80;99.40;;;;;;4974697;28;20039;-57
2023/07/12 09:54:22;;;;;;;5.55;3.28;;;28.20;97.70;;;;;;4979351;28;20363;-58
2023/07/12 09:56:56;;;;;;;4.40;3.33;;;28.20;96.10;;;;;;4977998;28;20072;-58
2023/07/12 09:59:29;;;;;;;4.80;3.45;;;28.20;95.40;;;;;;4978001;28;20499;-58
2023/07/12 10:02:25;;;;;;;5.57;3.50;;;28.10;94.90;;;;;;4978256;28;20418;-57
2023/07/12 10:04:56;;;;;;;4.97;3.58;;;28.00;94.70;;;;;;4977845;28;20038;-58
2023/07/12 10:07:27;;;;;;;6.03;3.13;;;28.00;94.30;;;;;;4974553;28;20034;-57
2023/07/12 10:09:55;;;;;;;5.78;3.30;;;27.80;94.30;;;;;;4978150;28;20031;-58
2023/07/12 10:12:32;;;;;;;6.28;3.10;;;27.70;93.70;;;;;;4978342;28;21012;-58
2023/07/12 10:14:58;;;;;;;5.10;3.25;;;27.60;93.90;;;;;;4978872;28;20852;-58
2023/07/12 10:17:34;;;;;;;7.53;3.58;;;27.80;94.20;;;;;;4976811;28;20085;-58
2023/07/12 10:20:01;;;;;;;4.05;3.10;;;28.00;92.40;;;;;;4976716;28;20031;-58
2023/07/12 10:22:35;;;;;;;6.43;3.25;;;28.10;90.90;;;;;;4981960;28;20085;-59
2023/07/12 10:25:10;;;;;;;6.05;3.22;;;28.00;90.10;;;;;;4982184;28;20023;-58
2023/07/12 10:27:45;;;;;;;3.83;3.08;;;28.10;90.90;;;;;;4980433;28;20184;-58
2023/07/12 10:30:16;;;;;;;4.75;3.38;;;28.10;88.40;;;;;;4978961;28;20108;-56
2023/07/12 10:33:07;;;;;;;4.07;3.40;;;27.80;82.50;;;;;;4977328;28;20053;-57
2023/07/12 10:35:45;;;;;;;4.43;3.40;;;27.60;85.90;;;;;;4978559;28;20047;-58
2023/07/12 10:38:14;;;;;;;5.07;3.70;;;27.60;85.50;;;;;;4979923;28;20089;-57
2023/07/12 10:40:52;;;;;;;4.18;3.55;;;27.80;85.60;;;;;;4978346;28;20101;-58
2023/07/12 10:43:40;;;;;;;5.00;3.47;;;28.00;82.10;;;;;;4978582;28;20077;-58
2023/07/12 10:46:32;;;;;;;6.93;3.47;;;28.10;79.40;;;;;;4978912;28;20023;-57
2023/07/12 10:49:03;;;;;;;3.83;2.95;;;28.20;76.00;;;;;;4982072;28;20057;-58
2023/07/12 10:51:41;;;;;;;4.40;3.13;;;28.20;75.40;;;;;;4976485;28;20030;-57
2023/07/12 10:54:29;;;;;;;6.82;3.78;;;28.20;74.00;;;;;;4976457;28;20035;-58
2023/07/12 10:57:02;;;;;;;7.03;3.50;;;28.30;75.50;;;;;;4975288;28;20031;-57
2023/07/12 10:59:33;;;;;;;5.82;3.72;;;28.50;74.20;;;;;;4990034;28;20026;-57
2023/07/12 11:02:04;;;;;;;5.78;3.90;;;28.50;71.00;;;;;;4980908;28;20028;-58
2023/07/12 11:04:29;;;;;;;4.70;3.42;;;28.40;71.80;;;;;;4977283;28;20035;-57
2023/07/12 11:06:55;;;;;;;4.15;3.33;;;28.30;71.90;;;;;;4977335;28;20029;-56
2023/07/12 11:09:22;;;;;;;4.80;3.33;;;28.00;72.40;;;;;;4978284;28;20042;-59
2023/07/12 11:11:50;;;;;;;5.07;3.22;;;27.80;71.50;;;;;;4975866;28;20027;-58
2023/07/12 11:14:24;;;;;;;6.22;3.85;;;27.70;73.40;;;;;;4977949;28;20026;-56
2023/07/12 11:17:21;;;;;;;5.18;3.00;;;27.90;74.80;;;;;;4976876;28;20929;-58
2023/07/12 11:20:01;;;;;;;8.25;3.25;;;28.20;74.00;;;;;;4978451;28;20039;-57
2023/07/12 11:22:51;;;;;;;4.20;3.08;;;28.40;70.30;;;;;;4979877;28;20034;-58
2023/07/12 11:25:28;;;;;;;3.77;3.27;;;28.70;71.20;;;;;;4974991;28;20068;-58
2023/07/12 11:28:03;;;;;;;3.97;3.08;;;28.70;68.80;;;;;;4977408;28;20041;-57
2023/07/12 11:30:31;;;;;;;4.70;3.22;;;28.50;68.90;;;;;;4976538;28;20039;-58
2023/07/12 11:33:15;;;;;;;3.53;2.85;;;28.30;68.30;;;;;;4979670;28;20369;-56
2023/07/12 11:35:53;;;;;;;5.20;2.70;;;28.10;67.80;;;;;;4979223;28;20065;-58
2023/07/12 11:38:18;;;;;;;6.22;3.45;;;27.90;69.20;;;;;;4982747;28;20807;-58
2023/07/12 11:40:47;;;;;;;5.13;3.38;;;27.70;68.40;;;;;;4978968;28;20022;-58
2023/07/12 11:43:24;;;;;;;4.38;3.10;;;27.60;69.80;;;;;;4975650;28;20401;-57
2023/07/12 11:45:56;;;;;;;3.47;3.15;;;27.50;70.80;;;;;;4976857;28;20526;-58
2023/07/12 11:48:23;;;;;;;4.38;3.58;;;27.50;72.00;;;;;;4976338;28;20063;-57
2023/07/12 11:50:51;;;;;;;4.63;3.22;;;27.70;71.30;;;;;;4975985;28;20081;-57
2023/07/12 11:53:17;;;;;;;5.00;3.15;;;28.00;69.90;;;;;;4973707;28;20042;-57
2023/07/12 11:55:47;;;;;;;5.53;3.38;;;28.40;71.20;;;;;;4977958;28;20105;-59
2023/07/12 11:58:19;;;;;;;7.43;3.10;;;28.70;69.40;;;;;;4976261;28;20081;-57
2023/07/12 12:00:46;;;;;;;3.40;2.78;;;28.80;66.50;;;;;;4978257;28;20051;-57
2023/07/12 12:03:13;;;;;;;3.85;3.03;;;28.90;65.20;;;;;;4976685;28;20495;-56
2023/07/12 12:05:40;;;;;;;5.18;2.63;;;28.90;63.90;;;;;;4977325;28;20058;-58
2023/07/12 12:08:07;;;;;;;3.67;2.58;;;28.90;64.30;;;;;;4978438;28;20024;-59
2023/07/12 12:10:40;;;;;;;5.95;3.03;;;28.80;61.60;;;;;;4974797;28;20037;-57
2023/07/12 12:13:19;;;;;;;4.68;3.20;;;28.70;62.50;;;;;;4974954;28;20037;-56
2023/07/12 12:15:51;;;;;;;6.47;3.15;;;28.60;63.20;;;;;;4974049;28;20082;-58
2023/07/12 12:18:22;;;;;;;5.35;3.03;;;28.70;64.80;;;;;;4975674;28;20073;-56
2023/07/12 12:21:01;;;;;;;;;;;29.10;64.00;;;;;;4977866;28;20046;-56
2023/07/12 12:23:32;;;;;;;4.53;2.70;;;29.50;64.10;;;;;;4977107;28;19906;-57
2023/07/12 12:26:00;;;;;;;;;;;29.90;62.00;;;;;;4978605;28;20541;-59
2023/07/12 12:28:31;;;;;;;4.10;2.67;;;30.10;61.60;;;;;;4978825;28;20001;-58
2023/07/12 12:31:06;;;;;;;2.85;2.65;;;30.30;60.10;;;;;;4976946;28;20065;-58
2023/07/12 12:33:34;;;;;;;4.13;2.92;;;30.40;60.60;;;;;;4978025;28;20426;-58
2023/07/12 12:36:03;;;;;;;3.95;2.58;;;30.50;60.60;;;;;;4974974;28;20122;-58
2023/07/12 12:38:35;;;;;;;6.00;3.00;;;30.40;58.30;;;;;;4973725;28;20054;-58
2023/07/12 12:41:14;;;;;;;3.33;2.25;;;30.40;59.50;;;;;;4976308;28;20037;-58
2023/07/12 12:43:55;;;;;;;3.42;1.77;;;30.60;57.90;;;;;;4975276;28;20035;-57
2023/07/12 12:46:21;;;;;;;4.75;2.45;;;30.70;57.30;;;;;;4974143;28;20069;-58
2023/07/12 12:48:52;;;;;;;5.15;2.42;;;30.80;56.60;;;;;;4976351;28;20587;-58
2023/07/12 12:51:18;;;;;;;4.00;2.95;;;31.00;56.30;;;;;;4974507;28;20474;-58
2023/07/12 12:53:44;;;;;;;5.05;2.90;;;31.00;57.00;;;;;;4982201;28;20026;-59
2023/07/12 12:56:12;;;;;;;6.32;2.60;;;31.00;56.50;;;;;;4977085;28;20022;-56